Total de visites : 248227 | les spotteurs aujourd'hui : 186 | les spotteurs connect├ęs actuellement : 1
METAR EN COURS : Saint-Denis / Gillot, Reunion (FMEE) 20-53S 055-31E 25M- - - - Jan 17, 2019 - 05:30 PM EST / 2019.01.17 2230 UTC- - - - Wind: from the S (190 degrees) at 6 MPH (5 KT):0- - - - Visibility: greater than 7 mile(s):0- - - - Weather: Towering cumulus clouds observed- - - - Temperature: 75 F (24 C)- - - - Dew Point: 69 F (21 C)- - - - Relative Humidity: 83%- - - - Pressure (altimeter): 29.91 in. Hg (1013 hPa)- - - - ob: FMEE 172230Z AUTO 19005KT CAVOK 24/21 Q1013 TEMPO 4000 SHRA SCT025TCU- - - - cycle: 22- - - -